Terminal Aerodrome Forecast
Issued by NWS

Home | Current Version | Previous Version | Text Only | Print | Product List | Glossary On
Versions: 1 2 3 4 5 6 7 8 9 10 11 12 13 14
000
FTUS45 KRIW 060500
TAFCPR
TAF
KCPR 060527Z 0606/0706 23014KT P6SM SCT120
     FM061700 23015G25KT P6SM FEW120
     FM070200 23013KT P6SM SCT120=

USA.gov is the U.S. government's official web portal to all federal, state and local government web resources and services.